Time;durP1;ratioP1;P1;durP2;ratioP2;P2;SDS_P1;SDS_P2;PMS_P1;PMS_P2;Temp;Humidity;BMP_temperature;BMP_pressure;BME280_temperature;BME280_humidity;BME280_pressure;Samples;Min_cycle;Max_cycle;Signal;HPM_P1;HPM_P2
2022/04/26 03:36:31;;;;;;;22.83;15.63;;;10.90;99.90;;;;;;5086323;28;20928;-77
2022/04/26 03:39:19;;;;;;;16.90;15.10;;;10.80;99.90;;;;;;5084791;28;20930;-76
2022/04/26 03:42:05;;;;;;;18.13;15.70;;;10.70;99.90;;;;;;5083120;28;20460;-77
2022/04/26 03:44:51;;;;;;;18.73;15.30;;;10.70;99.90;;;;;;5086019;28;21129;-77
2022/04/26 03:47:36;;;;;;;17.30;15.37;;;10.70;99.90;;;;;;5085551;28;20914;-77
2022/04/26 03:50:22;;;;;;;19.40;16.60;;;10.70;99.90;;;;;;5083295;28;20447;-77
2022/04/26 03:53:08;;;;;;;19.93;15.23;;;10.70;99.90;;;;;;5083661;28;20428;-76
2022/04/26 03:55:55;;;;;;;19.37;16.07;;;10.70;99.90;;;;;;5087192;28;20449;-76
2022/04/26 03:58:40;;;;;;;20.07;15.23;;;10.80;99.90;;;;;;5087482;28;20961;-77
2022/04/26 04:01:26;;;;;;;18.37;14.10;;;10.70;99.90;;;;;;5085845;28;20452;-77
2022/04/26 04:04:12;;;;;;;16.03;14.27;;;10.50;99.90;;;;;;5087347;28;20418;-76
2022/04/26 04:06:57;;;;;;;20.80;15.67;;;10.50;99.90;;;;;;5088975;28;20465;-76
2022/04/26 04:09:43;;;;;;;18.43;15.90;;;10.50;99.90;;;;;;5086709;28;20488;-77
2022/04/26 04:12:31;;;;;;;19.63;15.10;;;10.60;99.90;;;;;;5091282;28;20428;-77
2022/04/26 04:15:16;;;;;;;18.33;15.97;;;10.70;99.90;;;;;;5088884;28;20449;-77
2022/04/26 04:18:02;;;;;;;19.80;16.13;;;10.80;99.90;;;;;;5086300;28;20568;-77
2022/04/26 04:20:48;;;;;;;17.33;15.43;;;10.90;99.90;;;;;;5086358;28;20547;-78
2022/04/26 04:23:37;;;;;;;19.33;16.40;;;10.70;99.90;;;;;;5089528;28;20499;-77
2022/04/26 04:26:22;;;;;;;19.17;15.20;;;10.70;99.90;;;;;;5090021;28;20423;-78
2022/04/26 04:29:10;;;;;;;21.07;17.57;;;10.50;99.90;;;;;;5089889;28;20475;-78
2022/04/26 04:31:55;;;;;;;18.57;15.23;;;10.60;99.90;;;;;;5089777;28;20561;-78
2022/04/26 04:34:41;;;;;;;19.47;16.20;;;10.70;99.90;;;;;;5090807;28;20548;-77
2022/04/26 04:37:26;;;;;;;17.83;15.93;;;10.80;99.90;;;;;;5087989;28;20542;-78
2022/04/26 04:40:12;;;;;;;18.43;15.80;;;10.80;99.90;;;;;;5090898;28;20489;-78
2022/04/26 04:42:58;;;;;;;18.43;15.37;;;11.00;99.90;;;;;;5090059;28;20534;-78
2022/04/26 04:45:45;;;;;;;20.23;16.63;;;10.90;99.90;;;;;;5089099;28;20426;-77
2022/04/26 04:48:30;;;;;;;21.00;17.20;;;10.90;99.90;;;;;;5087516;28;20792;-78
2022/04/26 04:51:16;;;;;;;21.03;17.30;;;10.90;99.90;;;;;;5085155;28;20453;-78
2022/04/26 04:54:02;;;;;;;21.07;16.70;;;11.00;99.90;;;;;;5087107;28;20445;-78
2022/04/26 04:56:48;;;;;;;22.47;17.10;;;11.00;99.90;;;;;;5089561;28;20408;-78
2022/04/26 04:59:34;;;;;;;18.60;15.90;;;11.00;99.90;;;;;;5085007;28;20415;-78
2022/04/26 05:02:21;;;;;;;20.80;17.20;;;10.90;99.90;;;;;;5089856;28;20811;-78
2022/04/26 05:05:07;;;;;;;21.00;17.57;;;10.90;99.90;;;;;;5089031;28;20483;-78
2022/04/26 05:07:53;;;;;;;17.93;15.77;;;11.00;99.90;;;;;;5087621;28;20518;-78
2022/04/26 05:10:40;;;;;;;19.63;16.20;;;11.10;99.90;;;;;;5085996;28;20469;-77
2022/04/26 05:13:27;;;;;;;21.93;17.23;;;11.10;99.90;;;;;;5089297;28;20531;-78
2022/04/26 05:16:12;;;;;;;20.70;18.07;;;11.20;99.90;;;;;;5087513;28;20416;-78
2022/04/26 05:18:59;;;;;;;22.20;17.50;;;11.10;99.90;;;;;;5087197;28;20440;-78
2022/04/26 05:21:45;;;;;;;19.13;17.00;;;11.20;99.90;;;;;;5086089;28;20444;-78
2022/04/26 05:27:34;;;;;;;22.50;19.17;;;11.20;99.90;;;;;;5086697;28;20986;-78
2022/04/26 05:30:20;;;;;;;18.47;16.43;;;11.30;99.90;;;;;;5086947;28;20443;-78
2022/04/26 05:33:06;;;;;;;21.23;17.80;;;11.20;99.90;;;;;;5084928;28;20839;-78
2022/04/26 05:35:53;;;;;;;24.60;18.07;;;11.20;99.90;;;;;;5088517;28;20513;-78
2022/04/26 05:38:39;;;;;;;23.10;17.40;;;11.30;99.90;;;;;;5086395;28;20462;-77
2022/04/26 05:41:24;;;;;;;21.77;18.27;;;11.20;99.90;;;;;;5087969;28;20452;-78
2022/04/26 05:44:10;;;;;;;22.70;19.77;;;11.20;99.90;;;;;;5087186;28;20446;-78
2022/04/26 05:46:56;;;;;;;24.13;18.80;;;11.20;99.90;;;;;;5089493;28;20412;-78
2022/04/26 05:49:42;;;;;;;20.33;17.03;;;11.30;99.90;;;;;;5090189;28;20448;-78
2022/04/26 05:52:29;;;;;;;20.00;17.83;;;11.20;99.90;;;;;;5088610;28;21058;-78
2022/04/26 05:55:14;;;;;;;19.90;17.23;;;11.20;99.90;;;;;;5085799;28;20411;-78
2022/04/26 05:58:01;;;;;;;21.93;18.37;;;11.10;99.90;;;;;;5085704;28;20510;-78
2022/04/26 06:00:47;;;;;;;22.13;18.60;;;11.00;99.90;;;;;;5089123;28;20603;-78
2022/04/26 06:03:33;;;;;;;31.53;19.07;;;11.00;99.90;;;;;;5090391;28;20497;-78
2022/04/26 06:06:20;;;;;;;26.37;19.73;;;11.10;99.90;;;;;;5080930;28;20457;-78
2022/04/26 06:09:07;;;;;;;28.07;19.33;;;11.10;99.90;;;;;;5086087;28;20830;-78
2022/04/26 06:11:53;;;;;;;23.67;18.47;;;11.10;99.90;;;;;;5091927;28;20432;-77
2022/04/26 06:14:39;;;;;;;22.23;18.73;;;11.20;99.90;;;;;;5087595;28;20441;-78
2022/04/26 06:17:24;;;;;;;24.20;18.67;;;11.10;99.90;;;;;;5085103;28;20460;-78
2022/04/26 06:20:10;;;;;;;23.07;19.33;;;11.00;99.90;;;;;;5080171;28;20461;-78
2022/04/26 06:22:56;;;;;;;22.00;18.30;;;10.90;99.90;;;;;;5084942;28;20511;-77
2022/04/26 06:25:43;;;;;;;25.30;18.37;;;10.80;99.90;;;;;;5092240;28;20402;-77
2022/04/26 06:28:29;;;;;;;27.97;18.60;;;10.80;99.90;;;;;;5078717;28;20603;-78
2022/04/26 06:31:15;;;;;;;31.20;21.47;;;10.80;99.90;;;;;;5085187;28;20426;-78
2022/04/26 06:34:00;;;;;;;32.67;23.40;;;10.60;99.90;;;;;;5090732;28;20466;-77
2022/04/26 06:36:46;;;;;;;31.63;22.63;;;10.50;99.90;;;;;;5089488;28;20437;-78
2022/04/26 06:39:32;;;;;;;29.00;21.40;;;10.50;99.90;;;;;;5084765;28;20484;-78
2022/04/26 06:42:19;;;;;;;24.73;18.93;;;10.50;99.90;;;;;;5072576;28;20805;-78
2022/04/26 06:45:05;;;;;;;37.67;19.30;;;10.60;99.90;;;;;;5071214;28;20905;-78
2022/04/26 06:47:54;;;;;;;28.30;19.17;;;10.70;99.90;;;;;;5075182;28;20784;-78
2022/04/26 06:50:40;;;;;;;31.87;17.77;;;10.80;99.90;;;;;;5087703;28;20582;-78
2022/04/26 06:53:26;;;;;;;19.57;15.10;;;10.90;99.90;;;;;;5103075;28;20401;-78
2022/04/26 06:56:12;;;;;;;24.17;16.50;;;10.90;99.90;;;;;;5101449;28;20426;-78
2022/04/26 06:58:59;;;;;;;20.23;15.07;;;11.00;99.90;;;;;;5088230;28;20389;-78
2022/04/26 07:01:45;;;;;;;20.70;14.10;;;11.10;99.90;;;;;;5084555;28;20440;-78
2022/04/26 07:04:31;;;;;;;21.50;15.30;;;11.10;99.90;;;;;;5087850;28;20426;-78
2022/04/26 07:07:16;;;;;;;20.63;14.60;;;11.10;99.90;;;;;;5102562;28;20421;-78
2022/04/26 07:10:02;;;;;;;20.63;15.30;;;11.20;99.90;;;;;;5081114;28;20697;-78
2022/04/26 07:12:47;;;;;;;21.17;15.37;;;11.30;99.90;;;;;;5082214;28;20426;-78
2022/04/26 07:15:34;;;;;;;30.23;16.00;;;11.30;99.90;;;;;;5084917;28;20414;-78
2022/04/26 07:18:20;;;;;;;22.97;15.20;;;11.30;99.90;;;;;;5088430;28;20542;-78
2022/04/26 07:21:06;;;;;;;23.43;16.37;;;11.30;99.90;;;;;;5089735;28;20470;-78
2022/04/26 07:23:52;;;;;;;17.37;13.40;;;11.50;99.90;;;;;;5083760;28;20492;-78
2022/04/26 07:26:37;;;;;;;19.60;14.40;;;11.50;99.90;;;;;;5101195;28;20984;-78
2022/04/26 07:29:23;;;;;;;18.17;14.47;;;11.50;99.90;;;;;;5092333;28;20522;-78
2022/04/26 07:32:10;;;;;;;23.70;12.43;;;11.50;99.90;;;;;;5093685;28;20462;-78
2022/04/26 07:34:55;;;;;;;17.83;13.70;;;11.60;99.90;;;;;;5092784;28;20446;-78
2022/04/26 07:37:41;;;;;;;23.03;13.73;;;11.60;99.90;;;;;;5085183;28;20416;-79
2022/04/26 07:40:27;;;;;;;22.10;13.77;;;11.70;99.90;;;;;;5094905;28;20560;-78
2022/04/26 07:43:13;;;;;;;16.40;12.20;;;11.90;99.90;;;;;;5092397;28;20567;-78
2022/04/26 07:45:59;;;;;;;13.90;10.50;;;11.90;99.90;;;;;;5097851;28;20449;-78
2022/04/26 07:48:46;;;;;;;13.93;10.87;;;12.00;99.90;;;;;;5097368;28;20460;-78
2022/04/26 07:51:32;;;;;;;14.50;10.47;;;12.00;99.90;;;;;;5105078;28;20490;-78
2022/04/26 07:54:19;;;;;;;11.00;8.13;;;12.10;99.90;;;;;;5102774;28;20514;-78
2022/04/26 07:57:04;;;;;;;13.63;9.93;;;12.20;99.90;;;;;;5104495;28;20533;-78
2022/04/26 07:59:51;;;;;;;10.77;8.63;;;12.20;99.90;;;;;;5100060;28;20469;-78
2022/04/26 08:02:36;;;;;;;11.80;9.13;;;12.10;99.90;;;;;;5100386;28;20922;-77
2022/04/26 08:05:23;;;;;;;11.53;9.00;;;12.20;99.90;;;;;;5103989;28;20438;-79
2022/04/26 08:08:09;;;;;;;10.60;8.13;;;12.30;99.90;;;;;;5100593;28;20467;-77
2022/04/26 08:10:55;;;;;;;13.30;9.10;;;12.40;99.90;;;;;;5102782;28;20464;-78
2022/04/26 08:13:40;;;;;;;8.90;7.60;;;12.40;99.90;;;;;;5099767;28;20461;-79
2022/04/26 08:16:26;;;;;;;9.03;5.73;;;12.60;99.90;;;;;;5101079;28;20470;-78
2022/04/26 08:19:12;;;;;;;8.00;5.80;;;12.70;99.90;;;;;;5100404;28;21162;-78
2022/04/26 08:21:59;;;;;;;9.50;6.57;;;12.80;99.90;;;;;;5101081;28;20508;-78
2022/04/26 08:27:49;;;;;;;6.40;4.93;;;13.00;99.90;;;;;;5104754;28;20804;-79
2022/04/26 08:30:35;;;;;;;10.13;4.53;;;12.80;99.90;;;;;;5094520;28;20490;-78
2022/04/26 08:33:20;;;;;;;6.23;5.47;;;12.40;99.90;;;;;;5096850;28;20506;-78
2022/04/26 08:36:06;;;;;;;6.57;5.20;;;12.40;99.90;;;;;;5100981;28;20742;-78
2022/04/26 08:38:53;;;;;;;7.70;5.10;;;12.40;99.90;;;;;;5103494;28;20495;-78
2022/04/26 08:41:39;;;;;;;9.27;5.50;;;12.50;99.90;;;;;;5101827;28;20485;-78
2022/04/26 08:44:27;;;;;;;7.43;5.60;;;12.50;99.90;;;;;;5104082;28;20536;-78
2022/04/26 08:53:21;;;;;;;6.13;5.17;;;12.90;99.90;;;;;;5101741;28;20842;-77
2022/04/26 08:56:09;;;;;;;5.97;5.20;;;13.10;99.90;;;;;;5102253;28;20457;-78
2022/04/26 08:58:54;;;;;;;8.17;5.70;;;13.10;99.90;;;;;;5103029;28;20408;-78
2022/04/26 09:01:40;;;;;;;6.97;5.37;;;13.20;99.90;;;;;;5098981;28;20479;-78
2022/04/26 09:04:26;;;;;;;7.40;5.90;;;13.40;99.90;;;;;;5105668;28;20472;-78
2022/04/26 09:07:12;;;;;;;8.23;5.80;;;13.60;99.90;;;;;;5102351;28;20432;-78
2022/04/26 09:10:10;;;;;;;9.70;6.47;;;13.70;99.90;;;;;;5102089;28;20439;-78
2022/04/26 09:13:07;;;;;;;8.27;5.73;;;13.60;99.90;;;;;;5101453;28;20470;-78
2022/04/26 09:15:55;;;;;;;7.47;6.03;;;13.50;99.90;;;;;;5106852;28;20450;-78
2022/04/26 09:18:40;;;;;;;6.57;5.20;;;13.50;99.90;;;;;;5102799;28;20845;-78
2022/04/26 09:21:28;;;;;;;9.10;5.80;;;13.40;99.90;;;;;;5099713;28;20469;-78
2022/04/26 09:24:16;;;;;;;7.93;5.60;;;13.50;99.90;;;;;;5104934;28;20427;-78
2022/04/26 09:27:16;;;;;;;12.73;6.57;;;13.60;99.90;;;;;;5102621;28;20434;-78
2022/04/26 09:30:08;;;;;;;7.30;5.87;;;13.80;99.90;;;;;;5105426;28;20467;-78
2022/04/26 09:32:53;;;;;;;9.13;5.70;;;13.80;99.90;;;;;;5101809;28;20456;-78
2022/04/26 09:35:40;;;;;;;9.20;6.87;;;13.50;99.90;;;;;;5103921;28;20412;-78
2022/04/26 09:38:26;;;;;;;7.47;6.07;;;13.10;99.90;;;;;;5103978;28;20427;-78
2022/04/26 09:41:12;;;;;;;8.30;6.03;;;13.10;99.90;;;;;;5101102;28;20461;-78
2022/04/26 09:44:01;;;;;;;5.97;5.03;;;13.40;99.90;;;;;;5104558;28;20445;-78
2022/04/26 09:46:49;;;;;;;7.60;6.10;;;13.50;99.90;;;;;;5101417;28;20469;-78
2022/04/26 09:49:39;;;;;;;6.37;4.77;;;13.70;99.90;;;;;;5104422;28;20508;-78
2022/04/26 09:52:25;;;;;;;7.53;5.00;;;13.90;99.90;;;;;;5101360;28;20419;-78
2022/04/26 09:55:13;;;;;;;5.70;4.90;;;14.00;99.90;;;;;;5105080;28;20468;-78
2022/04/26 09:57:59;;;;;;;6.37;4.73;;;14.20;99.90;;;;;;5103775;28;20434;-78
2022/04/26 10:00:47;;;;;;;7.93;5.23;;;14.30;99.90;;;;;;5099237;28;20465;-78
2022/04/26 10:03:38;;;;;;;7.10;5.10;;;14.30;99.90;;;;;;5105120;28;20966;-78
2022/04/26 10:06:26;;;;;;;6.37;5.10;;;14.40;99.90;;;;;;5106456;28;20461;-78
2022/04/26 10:09:12;;;;;;;6.20;5.10;;;14.30;99.90;;;;;;5108610;28;20494;-79
2022/04/26 10:11:59;;;;;;;6.00;5.30;;;14.30;99.90;;;;;;5102303;28;20470;-79
2022/04/26 10:14:45;;;;;;;6.43;5.80;;;14.50;99.90;;;;;;5106372;28;20439;-78
2022/04/26 10:17:32;;;;;;;6.50;5.40;;;14.50;99.90;;;;;;5107673;28;20438;-78
2022/04/26 10:20:40;;;;;;;7.90;6.27;;;14.60;99.90;;;;;;5103769;28;20455;-78
2022/04/26 10:23:26;;;;;;;5.97;5.40;;;14.50;99.90;;;;;;5104019;28;20494;-78
2022/04/26 10:26:24;;;;;;;8.03;5.30;;;14.40;99.90;;;;;;5098031;28;20440;-78
2022/04/26 10:29:18;;;;;;;6.40;5.33;;;14.30;99.80;;;;;;5129122;22;20520;-74
2022/04/26 10:32:12;;;;;;;10.53;4.80;;;14.30;99.90;;;;;;5063486;28;20953;-73
2022/04/26 10:35:23;;;;;;;5.77;5.10;;;14.30;99.80;;;;;;5063205;28;20421;-72
2022/04/26 10:38:16;;;;;;;6.30;5.20;;;14.40;99.90;;;;;;5067021;28;20416;-73
2022/04/26 10:41:08;;;;;;;6.67;5.30;;;14.30;97.60;;;;;;5045702;28;20498;-72
2022/04/26 10:44:23;;;;;;;8.07;6.07;;;14.30;99.30;;;;;;5044573;28;20452;-72
2022/04/26 10:47:33;;;;;;;6.30;5.13;;;14.70;99.90;;;;;;5046172;28;20532;-73
2022/04/26 10:50:32;;;;;;;6.30;4.93;;;14.70;96.50;;;;;;5034457;28;20574;-73
2022/04/26 10:53:45;;;;;;;5.93;4.53;;;14.80;98.60;;;;;;5048767;28;20439;-72
2022/04/26 10:56:31;;;;;;;6.13;4.40;;;14.60;96.10;;;;;;5048304;28;20418;-72
2022/04/26 10:59:18;;;;;;;6.37;4.23;;;14.40;95.40;;;;;;5042274;28;20423;-73
2022/04/26 11:02:05;;;;;;;5.63;4.53;;;14.20;97.50;;;;;;5047087;28;20790;-73
2022/04/26 11:04:57;;;;;;;4.90;4.20;;;14.00;97.30;;;;;;5044804;28;20939;-72
2022/04/26 11:07:45;;;;;;;4.13;3.17;;;14.10;97.10;;;;;;5046426;28;20410;-73
2022/04/26 11:13:35;;;;;;;4.37;3.57;;;14.10;93.80;;;;;;5048699;28;20451;-72
2022/04/26 11:16:22;;;;;;;3.80;3.10;;;14.10;93.90;;;;;;5047852;28;20494;-72
2022/04/26 11:19:09;;;;;;;3.53;2.67;;;14.10;94.60;;;;;;5044942;28;20510;-74
2022/04/26 11:21:56;;;;;;;3.80;2.73;;;14.00;94.20;;;;;;5045141;28;20455;-72
2022/04/26 11:28:06;;;;;;;3.37;2.63;;;14.00;95.10;;;;;;5049116;28;20439;-71
2022/04/26 11:30:57;;;;;;;3.60;2.30;;;13.90;94.80;;;;;;5037745;28;20480;-72
2022/04/26 11:33:52;;;;;;;2.47;1.57;;;14.00;96.00;;;;;;5048394;28;20465;-73
2022/04/26 11:36:40;;;;;;;2.20;1.60;;;14.00;92.70;;;;;;5043334;28;20962;-72
2022/04/26 11:39:26;;;;;;;2.63;1.47;;;14.00;91.40;;;;;;5045260;28;20447;-72
2022/04/26 11:42:14;;;;;;;2.03;1.20;;;14.10;91.00;;;;;;5047720;28;20464;-72
2022/04/26 11:45:03;;;;;;;2.57;1.60;;;14.30;90.20;;;;;;5049062;28;20439;-73
2022/04/26 11:47:51;;;;;;;2.00;1.27;;;14.70;92.00;;;;;;5044236;28;20448;-72
2022/04/26 11:50:37;;;;;;;1.97;1.37;;;14.80;87.10;;;;;;5040434;28;21028;-73
2022/04/26 11:53:24;;;;;;;3.50;1.30;;;14.80;82.50;;;;;;5045800;28;20455;-73
2022/04/26 11:56:12;;;;;;;2.40;1.43;;;14.80;83.50;;;;;;5048128;28;20456;-72
2022/04/26 11:58:58;;;;;;;2.17;1.27;;;14.50;81.90;;;;;;5044090;28;20831;-72
2022/04/26 12:01:53;;;;;;;4.00;1.40;;;14.30;84.70;;;;;;5043393;28;20963;-73
2022/04/26 12:04:39;;;;;;;1.80;1.20;;;14.40;83.20;;;;;;5047625;28;20447;-73
2022/04/26 12:07:27;;;;;;;2.83;1.07;;;14.40;81.20;;;;;;5047435;28;20463;-73
2022/04/26 12:10:29;;;;;;;2.20;1.40;;;14.30;85.40;;;;;;5045462;28;20475;-73
2022/04/26 12:13:17;;;;;;;2.00;1.37;;;14.50;84.60;;;;;;5050663;28;20792;-73
2022/04/26 12:16:18;;;;;;;2.53;1.30;;;14.50;83.00;;;;;;5047114;28;20430;-72
2022/04/26 12:19:06;;;;;;;2.40;1.53;;;14.50;86.00;;;;;;5039573;28;20517;-73
2022/04/26 12:21:54;;;;;;;2.83;1.50;;;14.60;83.10;;;;;;5043402;28;20426;-72
2022/04/26 12:24:48;;;;;;;2.43;1.37;;;14.70;84.10;;;;;;5047419;28;20506;-73
2022/04/26 12:27:35;;;;;;;1.93;1.20;;;14.70;81.40;;;;;;5051995;28;20554;-73
2022/04/26 12:30:22;;;;;;;2.53;1.50;;;14.80;85.00;;;;;;5045110;28;20596;-72
2022/04/26 12:33:08;;;;;;;4.03;1.80;;;14.60;81.80;;;;;;5050373;28;20446;-73
2022/04/26 12:36:01;;;;;;;2.43;1.53;;;14.30;82.20;;;;;;5046712;28;20496;-73
2022/04/26 12:38:47;;;;;;;2.80;1.63;;;14.20;83.70;;;;;;5044333;28;20423;-73
2022/04/26 12:41:48;;;;;;;2.30;1.50;;;14.20;81.00;;;;;;5049756;28;20430;-72
2022/04/26 12:44:48;;;;;;;2.97;1.30;;;14.30;81.70;;;;;;5045563;28;20414;-73
2022/04/26 12:50:38;;;;;;;1.53;1.00;;;14.80;77.60;;;;;;5047969;28;20450;-72
2022/04/26 12:53:28;;;;;;;2.10;1.30;;;14.70;78.30;;;;;;5050725;28;20417;-72
2022/04/26 12:56:14;;;;;;;2.90;1.77;;;14.90;79.70;;;;;;5050767;28;20459;-72
2022/04/26 12:59:00;;;;;;;3.07;1.13;;;14.70;79.60;;;;;;5039870;28;20801;-73
2022/04/26 13:01:46;;;;;;;2.67;1.30;;;14.60;82.00;;;;;;5047752;28;20672;-73
2022/04/26 13:04:32;;;;;;;3.13;2.10;;;15.10;80.50;;;;;;5051751;28;20599;-72
2022/04/26 13:07:18;;;;;;;2.10;1.30;;;15.50;80.20;;;;;;5051025;28;20582;-73
2022/04/26 13:10:06;;;;;;;2.93;1.33;;;15.90;80.60;;;;;;5045317;28;20445;-72
2022/04/26 13:12:51;;;;;;;1.93;1.43;;;16.40;77.70;;;;;;5044207;28;20491;-72
2022/04/26 13:15:38;;;;;;;2.03;1.20;;;16.60;74.90;;;;;;5051115;28;20465;-73
2022/04/26 13:18:23;;;;;;;2.73;1.60;;;16.80;72.80;;;;;;5046384;28;20898;-73
2022/04/26 13:21:09;;;;;;;2.03;1.17;;;16.70;70.90;;;;;;5047930;28;20470;-73
2022/04/26 13:23:57;;;;;;;2.00;1.30;;;16.20;70.10;;;;;;5044801;28;20442;-72
2022/04/26 13:26:44;;;;;;;2.97;1.40;;;15.70;72.20;;;;;;5050269;28;20586;-72
2022/04/26 13:29:30;;;;;;;2.13;1.33;;;15.60;74.30;;;;;;5046367;28;20486;-72
2022/04/26 13:32:17;;;;;;;1.90;1.20;;;15.60;75.10;;;;;;5048558;28;20518;-73
2022/04/26 13:35:05;;;;;;;2.10;1.40;;;15.40;75.50;;;;;;5046905;28;20968;-72
2022/04/26 13:37:52;;;;;;;2.63;1.77;;;15.30;77.10;;;;;;5046996;28;20983;-73
2022/04/26 13:40:38;;;;;;;2.33;1.50;;;15.00;79.80;;;;;;5050479;28;20470;-73
2022/04/26 13:43:25;;;;;;;2.60;1.77;;;14.70;82.20;;;;;;5045167;28;20506;-72
2022/04/26 13:46:11;;;;;;;2.00;1.30;;;14.50;83.20;;;;;;5050147;28;21036;-73
2022/04/26 13:48:57;;;;;;;3.47;2.20;;;14.30;85.50;;;;;;5042533;28;20780;-74
2022/04/26 13:51:43;;;;;;;2.00;1.30;;;13.90;88.80;;;;;;5048572;28;20479;-72
2022/04/26 13:54:29;;;;;;;2.33;1.73;;;13.80;90.00;;;;;;5049387;28;20657;-73
2022/04/26 13:57:14;;;;;;;3.10;2.07;;;13.50;91.50;;;;;;5047954;28;20538;-72
2022/04/26 14:00:02;;;;;;;2.60;2.00;;;13.40;92.20;;;;;;5045717;28;20478;-73
2022/04/26 14:02:48;;;;;;;2.50;1.87;;;13.20;93.70;;;;;;5044432;28;20451;-73
2022/04/26 14:05:35;;;;;;;3.50;2.57;;;13.20;94.60;;;;;;5048798;28;20969;-72
2022/04/26 14:08:21;;;;;;;3.80;1.97;;;13.20;94.80;;;;;;5042700;28;20431;-73
2022/04/26 14:11:08;;;;;;;5.30;2.20;;;13.30;93.20;;;;;;5046883;28;20446;-72
2022/04/26 14:23:10;;;;;;;2.47;1.83;;;13.60;90.90;;;;;;5050659;28;20459;-72
2022/04/26 14:25:59;;;;;;;3.80;2.03;;;13.70;91.50;;;;;;5045702;28;20422;-72
2022/04/26 14:28:46;;;;;;;2.43;1.63;;;13.80;92.10;;;;;;5045993;28;20440;-73
2022/04/26 14:31:32;;;;;;;2.63;2.03;;;13.80;90.80;;;;;;5048461;28;21011;-73
2022/04/26 14:34:22;;;;;;;2.97;1.67;;;13.60;91.00;;;;;;5050295;28;20441;-72
2022/04/26 14:37:13;;;;;;;2.50;1.90;;;13.40;91.80;;;;;;5042865;28;20418;-72
2022/04/26 14:40:00;;;;;;;2.63;1.67;;;13.30;92.40;;;;;;5046199;28;20438;-72
2022/04/26 14:42:50;;;;;;;2.73;2.10;;;13.30;92.30;;;;;;5043913;28;20434;-73
2022/04/26 14:45:42;;;;;;;2.70;1.90;;;13.40;92.70;;;;;;5046374;28;20407;-73
2022/04/26 14:48:31;;;;;;;4.23;1.50;;;13.30;92.70;;;;;;5043962;28;20418;-73
2022/04/26 14:51:19;;;;;;;2.97;1.90;;;13.40;93.10;;;;;;5049095;28;20446;-73
2022/04/26 14:54:05;;;;;;;5.80;1.77;;;13.50;92.80;;;;;;5046206;28;20418;-72
2022/04/26 14:56:52;;;;;;;3.07;1.33;;;13.60;92.30;;;;;;5042001;28;20462;-72
2022/04/26 14:59:41;;;;;;;2.53;1.87;;;13.50;91.20;;;;;;5048072;28;20982;-72
2022/04/26 15:02:36;;;;;;;2.83;1.40;;;13.20;92.90;;;;;;5048773;28;20415;-72
2022/04/26 15:05:26;;;;;;;2.50;1.50;;;13.40;92.30;;;;;;5042506;28;20448;-72
2022/04/26 15:11:17;;;;;;;2.80;1.77;;;13.90;91.90;;;;;;5042178;28;21020;-72
2022/04/26 15:17:07;;;;;;;2.17;1.27;;;14.80;90.90;;;;;;5040108;28;20944;-72
2022/04/26 15:19:53;;;;;;;2.67;1.50;;;14.90;84.50;;;;;;5045432;28;20726;-72
2022/04/26 15:22:39;;;;;;;2.47;1.93;;;14.90;84.00;;;;;;5046363;28;20422;-72
2022/04/26 15:25:26;;;;;;;4.00;2.13;;;14.80;84.00;;;;;;5048204;28;20496;-73
2022/04/26 15:28:12;;;;;;;2.53;1.70;;;14.60;83.20;;;;;;5038279;28;20784;-73
2022/04/26 15:30:58;;;;;;;3.20;1.70;;;14.40;83.10;;;;;;5041576;28;20621;-73
2022/04/26 15:33:44;;;;;;;2.53;1.73;;;14.20;83.00;;;;;;5048681;28;20782;-72
2022/04/26 15:36:30;;;;;;;3.67;1.83;;;13.80;83.90;;;;;;5043880;28;20570;-73
2022/04/26 15:39:16;;;;;;;2.47;1.60;;;13.80;85.50;;;;;;5041156;28;20473;-73
2022/04/26 15:42:03;;;;;;;2.23;1.70;;;13.80;86.50;;;;;;5041046;28;20496;-72
2022/04/26 15:44:50;;;;;;;2.67;1.83;;;13.80;85.10;;;;;;5050417;28;20447;-72
2022/04/26 15:47:35;;;;;;;2.80;1.80;;;13.80;86.30;;;;;;5050152;28;20459;-72
2022/04/26 15:50:21;;;;;;;2.40;1.57;;;13.70;87.70;;;;;;5039382;28;20453;-72
2022/04/26 15:53:07;;;;;;;2.43;1.50;;;13.70;87.10;;;;;;5044863;28;20402;-73
2022/04/26 15:55:53;;;;;;;2.00;1.23;;;13.60;87.10;;;;;;5036207;28;20448;-72
2022/04/26 15:58:40;;;;;;;3.40;1.70;;;13.70;86.90;;;;;;5035927;28;20934;-73
2022/04/26 16:01:32;;;;;;;2.40;1.77;;;13.60;87.60;;;;;;5037885;28;21118;-73
2022/04/26 16:04:18;;;;;;;2.43;1.30;;;13.50;87.10;;;;;;5051718;28;20406;-70
2022/04/26 16:07:05;;;;;;;2.40;1.27;;;13.40;88.40;;;;;;5054799;28;20448;-73
2022/04/26 16:22:09;;;;;;;2.57;1.87;;;13.20;89.30;;;;;;5042605;28;20838;-73
2022/04/26 16:24:55;;;;;;;3.00;1.50;;;13.30;90.50;;;;;;5045662;28;20444;-70
2022/04/26 16:27:41;;;;;;;2.90;1.67;;;13.30;90.70;;;;;;5045761;28;21059;-71
2022/04/26 16:30:29;;;;;;;3.20;1.70;;;13.30;91.00;;;;;;5042396;28;20524;-72
2022/04/26 16:33:17;;;;;;;4.23;1.87;;;13.20;91.30;;;;;;5048823;28;21021;-70
2022/04/26 16:36:04;;;;;;;3.17;1.53;;;13.20;91.30;;;;;;5047478;28;20497;-70
2022/04/26 16:38:50;;;;;;;5.80;2.20;;;13.10;91.60;;;;;;5049288;28;20937;-73
2022/04/26 16:41:36;;;;;;;3.53;2.43;;;13.00;91.70;;;;;;5043156;28;20513;-70
2022/04/26 16:44:23;;;;;;;3.20;2.10;;;13.10;91.90;;;;;;5048708;28;20391;-70
2022/04/26 16:47:10;;;;;;;3.77;2.20;;;13.10;92.20;;;;;;5050576;28;20439;-70
2022/04/26 16:49:57;;;;;;;3.23;2.50;;;13.20;92.50;;;;;;5043595;28;20545;-70
2022/04/26 16:52:46;;;;;;;4.67;2.67;;;13.20;92.40;;;;;;5042058;28;20510;-73
2022/04/26 16:55:32;;;;;;;4.07;2.67;;;13.30;92.40;;;;;;5045113;28;20429;-72
2022/04/26 16:58:18;;;;;;;3.73;2.67;;;13.30;92.20;;;;;;5042358;28;20492;-72
2022/04/26 17:01:04;;;;;;;6.30;3.03;;;13.10;92.30;;;;;;5045054;28;20520;-70
2022/04/26 17:03:49;;;;;;;4.57;2.90;;;12.90;93.20;;;;;;5047122;28;20442;-70
2022/04/26 17:06:37;;;;;;;4.73;3.37;;;12.80;93.90;;;;;;5046889;28;20456;-70
2022/04/26 17:09:22;;;;;;;5.07;3.90;;;12.90;94.30;;;;;;5044995;28;20769;-69
2022/04/26 17:12:10;;;;;;;5.00;2.57;;;12.80;95.00;;;;;;5043920;28;20533;-75
2022/04/26 17:14:56;;;;;;;4.37;3.40;;;12.70;95.20;;;;;;5046337;28;20823;-70
2022/04/26 17:17:42;;;;;;;4.20;3.30;;;12.60;95.20;;;;;;5051872;28;20445;-70
2022/04/26 17:20:32;;;;;;;3.83;3.23;;;12.60;96.00;;;;;;5047017;28;20462;-70
2022/04/26 17:23:19;;;;;;;4.97;2.97;;;12.60;95.90;;;;;;5048817;28;20984;-70
2022/04/26 17:26:05;;;;;;;4.00;2.97;;;12.60;95.90;;;;;;5050290;28;20521;-70
2022/04/26 17:28:51;;;;;;;4.80;3.50;;;12.30;96.20;;;;;;5045565;28;21644;-69
2022/04/26 17:31:37;;;;;;;5.00;3.83;;;12.10;97.80;;;;;;5046919;28;20459;-70
2022/04/26 17:34:23;;;;;;;7.70;3.80;;;11.90;99.30;;;;;;5044049;28;20426;-70
2022/04/26 17:37:11;;;;;;;7.67;3.60;;;11.90;99.90;;;;;;5045599;28;20807;-69
2022/04/26 17:39:58;;;;;;;5.03;3.93;;;12.00;99.90;;;;;;5044304;28;20845;-70
2022/04/26 17:42:44;;;;;;;5.60;3.93;;;11.90;99.90;;;;;;5042001;28;20562;-70
2022/04/26 17:45:33;;;;;;;5.00;3.60;;;11.70;99.90;;;;;;5047636;28;20459;-71
2022/04/26 17:48:19;;;;;;;5.37;3.90;;;11.60;99.90;;;;;;5045861;28;20508;-71
2022/04/26 17:51:05;;;;;;;5.50;3.80;;;11.60;99.90;;;;;;5047285;28;20989;-71
2022/04/26 17:56:52;;;;;;;6.33;4.57;;;11.40;99.90;;;;;;5030061;28;20424;-72
2022/04/26 17:59:37;;;;;;;5.73;4.30;;;11.30;99.90;;;;;;5048138;28;20466;-70
2022/04/26 18:02:23;;;;;;;7.70;4.70;;;11.30;99.90;;;;;;5042080;28;20440;-70
2022/04/26 18:05:09;;;;;;;8.30;4.40;;;11.30;99.90;;;;;;5043324;28;20494;-70
2022/04/26 18:07:55;;;;;;;5.80;4.43;;;11.40;99.90;;;;;;5048763;28;20445;-70
2022/04/26 18:10:41;;;;;;;6.80;4.93;;;11.40;99.90;;;;;;5045102;28;20453;-70
2022/04/26 18:13:29;;;;;;;6.40;5.07;;;11.40;99.90;;;;;;5045965;28;20820;-72
2022/04/26 18:16:14;;;;;;;5.70;4.60;;;11.40;99.90;;;;;;5049004;28;20454;-70
2022/04/26 18:19:03;;;;;;;6.40;4.60;;;11.50;99.90;;;;;;5046601;28;20451;-70
2022/04/26 18:21:49;;;;;;;6.90;4.83;;;11.60;99.90;;;;;;5044614;28;20455;-70
2022/04/26 18:24:34;;;;;;;7.73;6.27;;;11.60;99.90;;;;;;5042639;28;20444;-71
2022/04/26 18:27:21;;;;;;;9.10;5.97;;;11.60;99.90;;;;;;5036992;28;20455;-70
2022/04/26 18:30:10;;;;;;;6.63;5.60;;;11.60;99.90;;;;;;5048072;28;20471;-73
2022/04/26 18:32:56;;;;;;;6.70;5.60;;;11.50;99.90;;;;;;5043733;28;20792;-71
2022/04/26 18:35:41;;;;;;;10.80;6.67;;;11.50;99.90;;;;;;5042632;28;20430;-69
2022/04/26 18:38:27;;;;;;;8.50;6.60;;;11.40;99.90;;;;;;5049497;28;20557;-70
2022/04/26 18:41:13;;;;;;;9.13;7.33;;;11.30;99.90;;;;;;5046506;28;20520;-70
2022/04/26 18:43:59;;;;;;;12.87;9.03;;;11.30;99.90;;;;;;5046317;28;20425;-70
2022/04/26 18:46:46;;;;;;;13.23;8.17;;;11.40;99.90;;;;;;5048970;28;20425;-71
2022/04/26 18:49:33;;;;;;;10.17;7.73;;;11.50;99.90;;;;;;5047140;28;20465;-70
2022/04/26 18:52:20;;;;;;;9.00;7.37;;;11.40;99.90;;;;;;5044316;28;20535;-73